Time;durP1;ratioP1;P1;durP2;ratioP2;P2;SDS_P1;SDS_P2;PMS_P1;PMS_P2;Temp;Humidity;BMP_temperature;BMP_pressure;BME280_temperature;BME280_humidity;BME280_pressure;Samples;Min_cycle;Max_cycle;Signal;HPM_P1;HPM_P2
2022/04/18 00:01:04;;;;;;;;;12.00;12.00;;;;;9.05;40.79;100401.06;5095959;28;8843;-63
2022/04/18 00:03:31;;;;;;;;;10.20;9.80;;;;;9.03;40.73;100394.16;5095147;28;8816;-64
2022/04/18 00:05:59;;;;;;;;;9.00;9.00;;;;;9.01;40.18;100399.56;5095172;28;8819;-64
2022/04/18 00:08:27;;;;;;;;;9.00;8.20;;;;;8.98;40.47;100394.44;5094003;28;8812;-64
2022/04/18 00:10:55;;;;;;;;;7.80;7.00;;;;;9.02;40.53;100390.63;5094929;28;8824;-64
2022/04/18 00:13:22;;;;;;;;;9.80;9.40;;;;;9.05;40.28;100390.44;5094763;28;8823;-64
2022/04/18 00:15:50;;;;;;;;;6.00;6.00;;;;;9.07;40.31;100393.84;5094784;28;8828;-63
2022/04/18 00:18:18;;;;;;;;;8.60;8.20;;;;;9.07;40.89;100385.03;5095461;28;9543;-63
2022/04/18 00:20:47;;;;;;;;;5.00;4.80;;;;;9.06;40.43;100385.97;5095578;28;8822;-63
2022/04/18 00:23:15;;;;;;;;;10.40;9.60;;;;;9.05;40.50;100378.97;5094286;28;8820;-63
2022/04/18 00:25:42;;;;;;;;;6.40;6.40;;;;;9.07;40.40;100375.25;5094010;28;8838;-64
2022/04/18 00:28:10;;;;;;;;;7.00;6.80;;;;;9.05;40.64;100369.19;5094232;28;8811;-63
2022/04/18 00:30:38;;;;;;;;;10.80;9.60;;;;;9.03;40.66;100370.25;5092952;28;8887;-63
2022/04/18 00:33:08;;;;;;;;;9.00;9.00;;;;;8.99;41.15;100371.41;5093789;28;9481;-63
2022/04/18 00:35:35;;;;;;;;;3.60;3.00;;;;;8.96;40.85;100376.94;5093916;28;8840;-64
2022/04/18 00:38:03;;;;;;;;;9.00;7.00;;;;;8.92;40.85;100363.00;5094196;28;9509;-64
2022/04/18 00:40:31;;;;;;;;;9.20;9.20;;;;;8.86;40.42;100374.03;5094161;28;8872;-65
2022/04/18 00:42:59;;;;;;;;;9.80;8.20;;;;;8.80;41.01;100368.28;5094504;28;8819;-63
2022/04/18 00:45:26;;;;;;;;;7.00;6.40;;;;;8.71;40.92;100363.53;5094692;28;8824;-63
2022/04/18 00:47:54;;;;;;;;;7.00;7.00;;;;;8.62;41.08;100362.34;5094673;28;8958;-63
2022/04/18 00:50:22;;;;;;;;;12.80;9.80;;;;;8.54;41.26;100367.31;5095572;28;8828;-63
2022/04/18 00:52:50;;;;;;;;;6.00;6.00;;;;;8.48;41.59;100359.72;5094864;28;8824;-63
2022/04/18 00:55:17;;;;;;;;;6.60;6.20;;;;;8.47;41.18;100359.81;5095633;28;8835;-64
2022/04/18 00:57:45;;;;;;;;;9.40;9.00;;;;;8.44;41.02;100360.88;5097080;28;8917;-63
2022/04/18 01:00:13;;;;;;;;;5.20;4.80;;;;;8.41;41.31;100355.75;5098837;28;8827;-63
2022/04/18 01:02:41;;;;;;;;;7.40;6.60;;;;;8.42;41.22;100346.84;5097727;28;8964;-64
2022/04/18 01:05:09;;;;;;;;;3.20;3.20;;;;;8.40;41.59;100343.47;5098463;28;8815;-64
2022/04/18 01:07:39;;;;;;;;;4.40;4.40;;;;;8.38;41.56;100349.81;5098821;28;8819;-65
2022/04/18 01:10:06;;;;;;;;;9.20;8.00;;;;;8.37;41.81;100340.97;5098934;28;8858;-63
2022/04/18 01:12:34;;;;;;;;;6.80;6.80;;;;;8.34;41.47;100338.53;5098498;28;8828;-63
2022/04/18 01:15:02;;;;;;;;;6.40;6.00;;;;;8.34;41.72;100342.97;5098189;28;8908;-64
2022/04/18 01:17:30;;;;;;;;;6.40;6.00;;;;;8.35;41.52;100345.53;5098336;28;8877;-64
2022/04/18 01:19:57;;;;;;;;;4.00;4.00;;;;;8.37;41.48;100340.97;5098069;28;8815;-64
2022/04/18 01:22:25;;;;;;;;;7.00;4.80;;;;;8.40;41.79;100337.28;5098059;28;8812;-65
2022/04/18 01:30:23;;;;;;;;;3.80;3.00;;;;;8.51;41.76;100332.97;5098385;28;8816;-64
2022/04/18 01:32:50;;;;;;;;;7.00;6.40;;;;;8.59;41.26;100328.03;5118992;28;8981;-64
2022/04/18 01:35:18;;;;;;;;;7.00;7.00;;;;;8.69;41.17;100318.53;5101136;28;8830;-63
2022/04/18 01:37:47;;;;;;;;;3.00;3.00;;;;;8.78;41.50;100317.91;5097963;28;8928;-63
2022/04/18 01:40:15;;;;;;;;;4.00;3.80;;;;;8.83;40.88;100315.78;5098034;28;8828;-64
2022/04/18 01:42:42;;;;;;;;;4.00;4.00;;;;;8.89;40.98;100319.84;5098067;28;8808;-63
2022/04/18 01:45:10;;;;;;;;;3.00;3.00;;;;;8.98;40.64;100312.09;5098463;28;8812;-64
2022/04/18 01:47:39;;;;;;;;;3.20;3.00;;;;;9.08;40.07;100307.03;5097852;28;8954;-64
2022/04/18 01:50:07;;;;;;;;;4.00;4.00;;;;;9.15;40.62;100311.84;5097783;28;9507;-64
2022/04/18 01:52:34;;;;;;;;;4.00;4.00;;;;;9.16;40.52;100307.34;5097687;28;8936;-64
2022/04/18 01:55:02;;;;;;;;;3.00;3.00;;;;;9.14;40.24;100303.97;5097924;28;9489;-63
2022/04/18 01:57:30;;;;;;;;;4.00;3.40;;;;;9.14;40.33;100303.97;5097328;28;8870;-64
2022/04/18 01:59:58;;;;;;;;;4.00;3.40;;;;;9.15;40.93;100306.53;5097823;28;8823;-63
2022/04/18 02:02:25;;;;;;;;;4.00;4.00;;;;;9.14;40.86;100294.19;5096601;28;8850;-63
2022/04/18 02:04:53;;;;;;;;;3.80;3.80;;;;;9.17;40.46;100298.44;5097547;28;8820;-63
2022/04/18 02:07:21;;;;;;;;;4.00;4.00;;;;;9.16;41.02;100297.59;5097026;28;8832;-64
2022/04/18 02:09:49;;;;;;;;;6.00;6.00;;;;;9.15;40.77;100306.53;5096494;28;8851;-63
2022/04/18 02:12:16;;;;;;;;;4.00;3.40;;;;;9.14;40.89;100298.66;5097720;28;8834;-63
2022/04/18 02:14:44;;;;;;;;;0.20;0.20;;;;;9.06;40.81;100296.53;5097372;28;8846;-63
2022/04/18 02:17:12;;;;;;;;;4.00;4.00;;;;;8.95;41.09;100291.06;5097526;28;8816;-63
2022/04/18 02:19:40;;;;;;;;;3.80;3.00;;;;;8.83;41.26;100283.09;5096555;28;8804;-63
2022/04/18 02:22:08;;;;;;;;;5.20;4.00;;;;;8.70;41.33;100282.19;5097692;28;8816;-63
2022/04/18 02:24:35;;;;;;;;;7.40;6.00;;;;;8.59;41.48;100290.03;5097359;28;8858;-63
2022/04/18 02:27:04;;;;;;;;;4.00;4.00;;;;;8.47;42.19;100286.38;5097388;28;8828;-64
2022/04/18 02:29:32;;;;;;;;;4.40;3.80;;;;;8.36;42.09;100288.88;5097347;28;8823;-63
2022/04/18 02:34:46;;;;;;;;;5.20;4.80;;;;;8.15;42.40;100289.38;5078369;28;8828;-64
2022/04/18 02:37:14;;;;;;;;;5.60;5.60;;;;;8.05;42.46;100288.28;5096646;28;8819;-64
2022/04/18 02:39:41;;;;;;;;;5.20;4.40;;;;;7.96;42.65;100286.19;5096944;28;8840;-63
2022/04/18 02:42:09;;;;;;;;;5.20;5.20;;;;;7.86;42.95;100285.94;5096801;28;8803;-64
2022/04/18 02:44:37;;;;;;;;;7.00;6.00;;;;;7.78;43.04;100285.56;5097317;28;8877;-63
2022/04/18 02:47:05;;;;;;;;;6.00;4.80;;;;;7.70;43.11;100293.13;5096941;28;8811;-63
2022/04/18 02:49:33;;;;;;;;;7.00;6.00;;;;;7.62;43.22;100294.56;5096502;28;8840;-64
2022/04/18 02:52:00;;;;;;;;;6.80;6.80;;;;;7.56;43.63;100294.06;5096867;28;8822;-64
2022/04/18 02:54:28;;;;;;;;;6.80;6.20;;;;;7.51;43.52;100290.88;5096917;28;8844;-63
2022/04/18 02:56:56;;;;;;;;;7.40;7.40;;;;;7.45;43.75;100286.81;5096392;28;8865;-63
2022/04/18 02:59:23;;;;;;;;;6.20;4.40;;;;;7.46;43.44;100282.34;5096347;28;8854;-63
2022/04/18 03:01:51;;;;;;;;;3.00;3.00;;;;;7.47;43.77;100282.25;5096241;28;8831;-63
2022/04/18 03:04:23;;;;;;;;;4.00;4.00;;;;;7.47;43.21;100278.75;5096152;28;8828;-63
2022/04/18 03:06:51;;;;;;;;;2.60;2.60;;;;;7.47;43.63;100266.38;5096658;28;8862;-63
2022/04/18 03:09:19;;;;;;;;;2.20;2.20;;;;;7.47;43.65;100273.44;5096487;28;8891;-67
2022/04/18 03:11:46;;;;;;;;;6.00;5.60;;;;;7.45;43.37;100273.56;5096675;28;8819;-63
2022/04/18 03:14:14;;;;;;;;;3.60;3.20;;;;;7.45;43.60;100272.69;5096938;28;8852;-64
2022/04/18 03:16:42;;;;;;;;;5.20;5.20;;;;;7.43;43.78;100267.50;5095854;28;8823;-66
2022/04/18 03:19:10;;;;;;;;;3.00;1.00;;;;;7.42;43.29;100264.97;5096624;28;9785;-63
2022/04/18 03:21:37;;;;;;;;;4.80;3.00;;;;;7.39;43.54;100265.13;5095548;28;8823;-64
2022/04/18 03:24:05;;;;;;;;;4.80;4.80;;;;;7.35;43.42;100264.47;5096587;28;9627;-64
2022/04/18 03:26:33;;;;;;;;;6.20;6.00;;;;;7.30;44.10;100273.63;5096079;28;8838;-63
2022/04/18 03:29:01;;;;;;;;;5.60;5.60;;;;;7.24;43.93;100266.06;5096451;28;8938;-64
2022/04/18 03:31:28;;;;;;;;;4.00;4.00;;;;;7.18;44.08;100266.44;5096064;28;8862;-63
2022/04/18 03:33:56;;;;;;;;;4.00;4.00;;;;;7.10;44.12;100263.41;5095500;28;8865;-64
2022/04/18 03:42:03;;;;;;;;;4.40;4.00;;;;;6.87;44.26;100261.28;5091337;28;8834;-63
2022/04/18 03:44:30;;;;;;;;;6.20;6.20;;;;;6.82;44.58;100263.38;5095265;28;8913;-66
2022/04/18 03:46:58;;;;;;;;;4.00;4.00;;;;;6.79;44.44;100260.88;5095631;28;8953;-63
2022/04/18 03:49:26;;;;;;;;;3.00;3.00;;;;;6.75;44.80;100256.72;5096202;28;8920;-64
2022/04/18 03:51:54;;;;;;;;;6.00;6.00;;;;;6.72;44.55;100259.53;5095587;28;8836;-62
2022/04/18 03:54:21;;;;;;;;;6.00;4.40;;;;;6.68;45.08;100256.22;5095396;28;9537;-63
2022/04/18 03:56:49;;;;;;;;;3.80;3.20;;;;;6.66;45.09;100257.28;5095552;28;8816;-63
2022/04/18 03:59:17;;;;;;;;;6.60;4.00;;;;;6.62;44.94;100253.09;5096439;28;8962;-63
2022/04/18 04:01:45;;;;;;;;;0.00;0.00;;;;;6.61;44.80;100252.22;5095470;28;8820;-62
2022/04/18 04:04:13;;;;;;;;;4.60;3.80;;;;;6.59;45.19;100248.81;5092176;28;8808;-63
2022/04/18 04:06:41;;;;;;;;;7.00;7.00;;;;;6.54;44.91;100250.88;5095753;28;8904;-63
2022/04/18 04:09:08;;;;;;;;;4.40;4.40;;;;;6.54;45.38;100250.88;5095539;28;9533;-63
2022/04/18 04:11:36;;;;;;;;;5.20;4.80;;;;;6.54;45.12;100253.53;5095600;28;9473;-64
2022/04/18 04:14:04;;;;;;;;;6.20;6.20;;;;;6.51;45.03;100244.94;5095155;28;8839;-62
2022/04/18 04:16:31;;;;;;;;;6.00;4.80;;;;;6.49;45.08;100241.50;5094706;28;8862;-63
2022/04/18 04:18:59;;;;;;;;;3.80;3.80;;;;;6.46;44.90;100245.19;5095856;28;8835;-63
2022/04/18 04:21:27;;;;;;;;;4.00;3.00;;;;;6.44;45.05;100251.53;5094590;28;8840;-62
2022/04/18 04:23:54;;;;;;;;;4.40;3.60;;;;;6.42;45.17;100240.16;5095440;28;8811;-63
2022/04/18 04:26:22;;;;;;;;;7.00;7.00;;;;;6.40;45.57;100244.69;5095188;28;8808;-63
2022/04/18 04:28:50;;;;;;;;;3.20;2.20;;;;;6.35;45.12;100241.44;5095202;28;8958;-63
2022/04/18 04:31:18;;;;;;;;;6.60;6.00;;;;;6.36;45.15;100243.19;5094514;28;8947;-62
2022/04/18 04:33:45;;;;;;;;;6.00;6.00;;;;;6.34;45.19;100245.91;5099135;28;8820;-63
2022/04/18 04:36:15;;;;;;;;;4.80;3.40;;;;;6.34;45.54;100240.63;5099418;28;8843;-62
2022/04/18 04:38:43;;;;;;;;;6.40;6.00;;;;;6.33;45.55;100241.56;5099660;28;8827;-63
2022/04/18 04:41:11;;;;;;;;;3.80;3.80;;;;;6.32;45.98;100241.63;5099000;28;8905;-62
2022/04/18 04:43:39;;;;;;;;;7.00;7.00;;;;;6.31;45.73;100237.31;5099360;28;8816;-63
2022/04/18 04:46:07;;;;;;;;;6.20;6.00;;;;;6.32;45.20;100241.63;5098321;28;8823;-63
2022/04/18 04:48:35;;;;;;;;;4.00;4.00;;;;;6.32;45.17;100239.00;5098662;28;8808;-63
2022/04/18 04:51:02;;;;;;;;;4.00;4.00;;;;;6.34;45.70;100242.41;5098930;28;8844;-63
2022/04/18 04:53:30;;;;;;;;;4.00;3.20;;;;;6.34;45.90;100239.75;5098585;28;8857;-63
2022/04/18 04:55:58;;;;;;;;;5.20;4.00;;;;;6.37;45.52;100247.53;5099007;28;8824;-62
2022/04/18 04:58:27;;;;;;;;;5.60;5.60;;;;;6.39;45.57;100243.00;5098276;28;8819;-62
2022/04/18 05:00:54;;;;;;;;;4.80;4.80;;;;;6.41;45.52;100241.09;5097972;28;8836;-62
2022/04/18 05:03:22;;;;;;;;;3.00;3.00;;;;;6.46;45.48;100249.63;5097986;28;8808;-62
2022/04/18 05:05:50;;;;;;;;;6.00;4.80;;;;;6.49;45.11;100238.88;5098763;28;8866;-63
2022/04/18 05:08:21;;;;;;;;;6.00;4.40;;;;;6.52;44.90;100239.53;5098477;28;8826;-62
2022/04/18 05:10:49;;;;;;;;;6.00;4.40;;;;;6.56;45.42;100241.06;5098581;28;9795;-62
2022/04/18 05:13:16;;;;;;;;;4.40;4.40;;;;;6.59;44.83;100232.94;5098627;28;8816;-62
2022/04/18 05:15:44;;;;;;;;;2.60;2.60;;;;;6.67;44.99;100243.09;5098063;28;8831;-62
2022/04/18 05:18:12;;;;;;;;;6.20;5.60;;;;;6.74;44.66;100236.50;5097475;28;8822;-63
2022/04/18 05:20:40;;;;;;;;;4.80;4.80;;;;;6.83;45.00;100250.00;5097669;28;8857;-63
2022/04/18 05:23:08;;;;;;;;;6.80;6.00;;;;;6.91;44.54;100242.47;5096906;28;8832;-63
2022/04/18 05:25:35;;;;;;;;;4.80;3.80;;;;;7.02;44.47;100242.69;5097020;28;8818;-63
2022/04/18 05:28:03;;;;;;;;;3.60;3.20;;;;;7.14;44.35;100246.38;5081107;28;8828;-63
2022/04/18 05:30:31;;;;;;;;;3.40;3.40;;;;;7.27;44.58;100250.00;5097094;28;8808;-64
2022/04/18 05:32:59;;;;;;;;;1.80;1.80;;;;;7.39;44.42;100254.53;5097224;28;8834;-63
2022/04/18 05:35:26;;;;;;;;;6.00;6.00;;;;;7.53;43.97;100241.28;5097791;28;8852;-63
2022/04/18 05:37:55;;;;;;;;;4.40;3.60;;;;;7.67;43.88;100250.09;5097658;28;8804;-63
2022/04/18 05:40:23;;;;;;;;;4.00;4.00;;;;;7.81;44.26;100250.91;5097607;28;8836;-63
2022/04/18 05:42:51;;;;;;;;;4.40;4.40;;;;;7.95;43.40;100250.88;5097673;28;8827;-63
2022/04/18 05:45:19;;;;;;;;;4.80;4.00;;;;;8.09;43.27;100253.50;5097575;28;8827;-63
2022/04/18 05:47:47;;;;;;;;;6.00;5.60;;;;;8.22;43.30;100249.13;5097898;28;8815;-62
2022/04/18 05:50:14;;;;;;;;;4.00;4.00;;;;;8.37;42.97;100253.41;5097419;28;8831;-63
2022/04/18 05:52:42;;;;;;;;;6.00;5.60;;;;;8.51;43.01;100249.88;5097704;28;8853;-63
2022/04/18 05:55:10;;;;;;;;;4.20;4.20;;;;;8.65;42.53;100250.66;5096520;28;8815;-62
2022/04/18 05:57:37;;;;;;;;;6.00;6.00;;;;;8.80;42.20;100252.28;5096290;28;8838;-62
2022/04/18 06:00:05;;;;;;;;;5.60;5.60;;;;;8.99;42.37;100254.53;5095533;28;8888;-64
2022/04/18 06:02:33;;;;;;;;;6.20;6.00;;;;;9.18;42.27;100258.47;5096870;28;8819;-63
2022/04/18 06:05:06;;;;;;;;;4.40;4.40;;;;;9.38;41.90;100251.78;5096476;28;8847;-64
2022/04/18 06:07:34;;;;;;;;;4.00;3.60;;;;;9.60;41.80;100255.50;5095443;28;8820;-62
2022/04/18 06:10:02;;;;;;;;;9.00;6.60;;;;;9.76;41.47;100256.09;5096532;28;8852;-63
2022/04/18 06:12:30;;;;;;;;;3.20;2.60;;;;;9.93;41.22;100266.38;5096962;28;8812;-64
2022/04/18 06:14:57;;;;;;;;;6.00;4.00;;;;;10.10;41.19;100254.56;5096891;28;8835;-63
2022/04/18 06:17:25;;;;;;;;;3.60;3.60;;;;;10.29;41.03;100257.56;5096379;28;8878;-65
2022/04/18 06:19:53;;;;;;;;;8.20;6.80;;;;;10.46;40.64;100260.69;5096448;28;8804;-63
2022/04/18 06:22:21;;;;;;;;;5.60;5.60;;;;;10.64;40.55;100264.66;5097216;28;8946;-63
2022/04/18 06:24:48;;;;;;;;;8.60;6.20;;;;;10.81;40.57;100260.72;5095964;28;8827;-63
2022/04/18 06:27:16;;;;;;;;;7.80;7.00;;;;;10.98;40.02;100260.28;5095773;28;8961;-63
2022/04/18 06:29:44;;;;;;;;;7.50;7.50;;;;;11.13;40.21;100254.63;5095849;28;8877;-63
2022/04/18 06:32:12;;;;;;;;;7.00;7.00;;;;;11.32;40.10;100256.75;5095653;28;9563;-64
2022/04/18 06:34:44;;;;;;;;;7.00;7.00;;;;;11.50;40.19;100260.63;5096344;28;8820;-63
2022/04/18 06:37:12;;;;;;;;;5.50;4.75;;;;;11.67;39.87;100249.53;5095530;28;8848;-63
2022/04/18 06:39:40;;;;;;;;;6.00;6.00;;;;;11.83;39.50;100250.84;5096072;28;8843;-63
2022/04/18 06:42:07;;;;;;;;;7.00;6.00;;;;;11.98;39.54;100252.28;5095755;28;8953;-64
2022/04/18 06:44:35;;;;;;;;;6.75;6.00;;;;;12.11;39.53;100245.00;5095981;28;8866;-64
2022/04/18 06:47:03;;;;;;;;;5.25;5.25;;;;;12.20;39.14;100254.91;5096129;28;8831;-64
2022/04/18 06:49:31;;;;;;;;;9.00;9.00;;;;;12.28;39.23;100250.66;5096151;28;8816;-63
2022/04/18 06:51:58;;;;;;;;;4.00;4.00;;;;;12.30;39.93;100253.22;5096535;28;8826;-64
2022/04/18 06:54:26;;;;;;;;;8.75;8.00;;;;;12.34;39.21;100247.50;5096200;28;8843;-63
2022/04/18 06:56:59;;;;;;;;;6.50;6.50;;;;;12.43;39.07;100245.88;5096418;28;8950;-64
2022/04/18 06:59:27;;;;;;;;;12.75;9.25;;;;;12.56;39.42;100238.56;5096382;28;8804;-63
2022/04/18 07:01:54;;;;;;;;;9.00;7.00;;;;;12.66;39.43;100243.00;5096161;28;9449;-67
2022/04/18 07:04:22;;;;;;;;;9.00;7.00;;;;;12.78;39.22;100242.00;5096017;28;8833;-63
2022/04/18 07:06:50;;;;;;;;;9.00;8.00;;;;;12.90;38.85;100240.94;5096195;28;9747;-64
2022/04/18 07:09:18;;;;;;;;;9.25;8.50;;;;;13.02;39.19;100244.44;5095544;28;8840;-63
2022/04/18 07:11:46;;;;;;;;;9.25;9.00;;;;;13.08;39.23;100243.91;5095966;28;8826;-63
2022/04/18 07:14:13;;;;;;;;;8.50;7.50;;;;;13.17;38.84;100237.78;5095880;28;8916;-63
2022/04/18 07:16:41;;;;;;;;;11.50;9.50;;;;;13.25;38.36;100249.53;5094942;28;8842;-64
2022/04/18 07:19:09;;;;;;;;;9.75;9.75;;;;;13.32;39.28;100241.81;5095373;28;8839;-63
2022/04/18 07:21:37;;;;;;;;;6.00;4.50;;;;;13.41;39.16;100243.69;5094757;28;8834;-64
2022/04/18 07:24:05;;;;;;;;;0.75;0.00;;;;;13.49;38.40;100234.03;5096065;28;8816;-63
2022/04/18 07:26:33;;;;;;;;;6.25;4.50;;;;;13.59;38.36;100239.44;5096158;28;8796;-63
2022/04/18 07:29:01;;;;;;;;;4.00;4.00;;;;;13.71;38.58;100238.34;5095977;28;8839;-63
2022/04/18 07:31:29;;;;;;;;;2.50;1.00;;;;;13.82;38.75;100243.63;5094247;28;8846;-64
2022/04/18 07:33:56;;;;;;;;;4.00;4.00;;;;;13.92;38.30;100240.00;5095822;28;8950;-62
2022/04/18 07:36:24;;;;;;;;;3.50;3.00;;;;;14.05;38.16;100240.59;5095868;28;8851;-63
2022/04/18 07:38:52;;;;;;;;;1.00;0.00;;;;;14.18;38.11;100237.72;5095488;28;8842;-64
2022/04/18 07:41:20;;;;;;;;;4.00;4.00;;;;;14.30;38.51;100242.81;5096363;28;8937;-63
2022/04/18 07:43:48;;;;;;;;;3.00;3.00;;;;;14.38;37.49;100242.97;5096102;28;9513;-64
2022/04/18 07:46:16;;;;;;;;;3.00;3.00;;;;;14.47;37.60;100235.91;5094843;28;9481;-63
2022/04/18 07:48:44;;;;;;;;;3.00;3.00;;;;;14.55;37.21;100236.06;5095322;28;8823;-63
2022/04/18 07:53:57;;;;;;;;;3.25;3.00;;;;;14.81;37.01;100231.84;5095676;28;8844;-64
2022/04/18 07:56:25;;;;;;;;;3.00;3.00;;;;;14.92;37.22;100229.00;5095085;28;8827;-63
2022/04/18 07:58:52;;;;;;;;;5.50;5.00;;;;;15.05;36.82;100224.19;5096001;28;8823;-63
2022/04/18 08:01:20;;;;;;;;;3.50;3.50;;;;;15.20;37.16;100222.75;5094734;28;8938;-63
2022/04/18 08:03:48;;;;;;;;;3.50;3.00;;;;;15.36;36.72;100228.41;5096050;28;8835;-64
2022/04/18 08:06:16;;;;;;;;;4.00;4.00;;;;;15.51;36.80;100221.56;5094834;28;8851;-64
2022/04/18 08:08:43;;;;;;;;;3.25;3.00;;;;;15.68;36.72;100220.81;5094856;28;8828;-65
2022/04/18 08:11:14;;;;;;;;;5.50;4.25;;;;;15.82;36.81;100221.19;5095084;28;8930;-65
2022/04/18 08:13:42;;;;;;;;;3.50;3.50;;;;;15.92;36.56;100221.97;5095114;28;8950;-63
2022/04/18 08:16:10;;;;;;;;;3.00;3.00;;;;;16.06;35.92;100223.31;5095165;28;8827;-64
2022/04/18 08:18:39;;;;;;;;;2.50;2.50;;;;;16.17;36.05;100228.50;5095138;28;8969;-64
2022/04/18 08:21:07;;;;;;;;;3.00;3.00;;;;;16.22;35.79;100224.34;5095206;28;8945;-63
2022/04/18 08:23:34;;;;;;;;;4.00;4.00;;;;;16.29;36.17;100225.44;5078613;28;8838;-64
2022/04/18 08:26:02;;;;;;;;;3.00;3.00;;;;;16.31;35.83;100224.28;5095491;28;8836;-63
2022/04/18 08:28:30;;;;;;;;;3.50;3.00;;;;;16.34;35.41;100228.53;5095292;28;8942;-64
2022/04/18 08:30:58;;;;;;;;;4.00;3.00;;;;;16.40;35.62;100219.91;5094859;28;8823;-63
2022/04/18 08:33:25;;;;;;;;;4.50;4.50;;;;;16.50;35.94;100223.34;5094742;28;8816;-64
2022/04/18 08:35:54;;;;;;;;;3.25;3.25;;;;;16.58;35.57;100224.28;5095449;28;8846;-64
2022/04/18 08:38:21;;;;;;;;;3.50;3.25;;;;;16.62;35.40;100225.66;5094793;28;8823;-65
2022/04/18 08:40:49;;;;;;;;;3.00;3.00;;;;;16.67;35.73;100223.38;5094766;28;8892;-64
2022/04/18 08:43:17;;;;;;;;;4.00;4.00;;;;;16.74;35.88;100216.38;5094481;28;9386;-64
2022/04/18 08:45:44;;;;;;;;;4.00;4.00;;;;;16.86;35.27;100219.66;5094110;28;8827;-63
2022/04/18 08:53:43;;;;;;;;;4.00;4.00;;;;;17.19;34.64;100219.78;5094840;28;8843;-63
2022/04/18 08:56:11;;;;;;;;;3.50;3.50;;;;;17.31;35.02;100215.81;5094769;28;8838;-63
2022/04/18 08:58:38;;;;;;;;;4.50;4.50;;;;;17.42;34.40;100212.03;5094337;28;8811;-63
2022/04/18 09:01:06;;;;;;;;;4.50;4.00;;;;;17.49;34.83;100205.88;5095075;28;8979;-64
2022/04/18 09:03:34;;;;;;;;;2.50;2.50;;;;;17.62;34.53;100208.94;5094127;28;8808;-63
2022/04/18 09:06:02;;;;;;;;;1.00;1.00;;;;;17.70;34.42;100206.31;5095350;28;8946;-63
2022/04/18 09:08:30;;;;;;;;;4.50;4.50;;;;;17.77;34.35;100201.97;5093715;28;8893;-63
2022/04/18 09:10:58;;;;;;;;;3.50;3.50;;;;;17.89;33.98;100208.75;5094672;28;9621;-63
2022/04/18 09:13:25;;;;;;;;;5.25;5.00;;;;;18.05;34.30;100199.88;5094173;28;8811;-63
2022/04/18 09:15:53;;;;;;;;;4.00;4.00;;;;;18.22;33.81;100191.69;5094731;28;8804;-64
2022/04/18 09:18:21;;;;;;;;;5.20;4.80;;;;;18.45;33.45;100191.97;5095776;28;8839;-63
2022/04/18 09:20:49;;;;;;;;;6.40;5.60;;;;;18.72;33.26;100186.25;5098625;28;8842;-64
2022/04/18 09:23:17;;;;;;;;;3.40;3.40;;;;;19.09;33.16;100181.19;5098287;28;8836;-63
2022/04/18 09:25:45;;;;;;;;;3.50;3.50;;;;;19.42;32.55;100172.88;5098630;28;8820;-64
2022/04/18 09:28:14;;;;;;;;;4.60;4.20;;;;;19.72;32.39;100174.81;5097566;28;8812;-63
2022/04/18 09:30:42;;;;;;;;;6.00;4.80;;;;;20.00;31.94;100169.81;5098439;28;8851;-63
2022/04/18 09:33:09;;;;;;;;;4.00;4.00;;;;;20.27;32.28;100172.94;5097556;28;8812;-64
2022/04/18 09:35:37;;;;;;;;;5.20;5.20;;;;;20.52;31.61;100170.88;5095726;28;8828;-64
2022/04/18 09:38:06;;;;;;;;;5.20;4.00;;;;;20.81;31.63;100166.44;5097517;28;8856;-64
2022/04/18 09:40:33;;;;;;;;;4.00;4.00;;;;;21.17;31.11;100168.34;5097863;28;8847;-64
2022/04/18 09:43:01;;;;;;;;;4.40;4.00;;;;;21.72;30.81;100167.97;5097051;28;8845;-64
2022/04/18 09:45:32;;;;;;;;;4.60;4.60;;;;;22.27;30.33;100160.13;5096526;28;8909;-64
2022/04/18 09:48:02;;;;;;;;;5.00;4.60;;;;;22.82;30.00;100160.28;5097156;28;8816;-64
2022/04/18 09:53:15;;;;;;;;;6.00;5.00;;;;;23.89;28.95;100144.44;5097069;28;8823;-64
2022/04/18 09:55:43;;;;;;;;;4.00;4.00;;;;;24.29;29.01;100143.53;5097388;28;8837;-65
2022/04/18 09:58:12;;;;;;;;;4.40;4.00;;;;;24.67;28.64;100140.09;5096595;28;8823;-64
2022/04/18 10:00:59;;;;;;;;;4.80;4.80;;;;;25.03;28.21;100134.25;5095785;28;8878;-63
2022/04/18 10:03:32;;;;;;;;;4.00;4.00;;;;;25.37;27.72;100134.03;5097079;28;8823;-64
2022/04/18 10:05:59;;;;;;;;;6.00;6.00;;;;;25.72;27.67;100133.53;5079153;28;8846;-64
2022/04/18 10:08:27;;;;;;;;;5.00;5.00;;;;;26.01;27.26;100131.16;5096995;28;8831;-64
2022/04/18 10:10:55;;;;;;;;;4.60;3.00;;;;;26.35;27.18;100130.75;5093812;28;8854;-64
2022/04/18 10:13:23;;;;;;;;;5.00;5.00;;;;;26.65;27.18;100129.13;5096814;28;8834;-63
2022/04/18 10:15:51;;;;;;;;;5.20;5.00;;;;;26.88;26.28;100123.94;5096881;28;9477;-63
2022/04/18 10:18:19;;;;;;;;;3.00;3.00;;;;;27.09;26.68;100118.06;5097037;28;9551;-64
2022/04/18 10:20:47;;;;;;;;;7.60;7.60;;;;;27.31;25.83;100113.91;5098135;28;8970;-64
2022/04/18 10:23:14;;;;;;;;;6.00;6.00;;;;;27.56;25.52;100117.44;5097255;28;8812;-64
2022/04/18 10:25:42;;;;;;;;;5.20;5.20;;;;;27.83;25.83;100112.56;5097138;28;8950;-62
2022/04/18 10:28:13;;;;;;;;;6.20;6.00;;;;;28.00;25.53;100116.34;5096781;28;8820;-65
2022/04/18 10:30:41;;;;;;;;;6.20;5.20;;;;;28.18;25.30;100100.72;5096449;28;8901;-64
2022/04/18 10:33:12;;;;;;;;;3.00;2.60;;;;;28.35;24.80;100101.75;5096344;28;8823;-62
2022/04/18 10:35:41;;;;;;;;;7.00;6.80;;;;;28.43;25.05;100104.16;5097090;28;8832;-62
2022/04/18 10:38:08;;;;;;;;;9.20;8.20;;;;;28.62;25.04;100102.22;5096054;28;8824;-62
2022/04/18 10:40:36;;;;;;;;;6.00;6.00;;;;;28.76;24.37;100099.00;5096509;28;9622;-62
2022/04/18 10:43:04;;;;;;;;;3.20;3.20;;;;;28.84;24.79;100090.44;5095878;28;8824;-62
2022/04/18 10:45:32;;;;;;;;;8.20;7.60;;;;;29.00;24.57;100092.53;5095033;28;8808;-64
2022/04/18 10:48:00;;;;;;;;;8.00;7.80;;;;;29.12;24.04;100104.34;5096724;28;8893;-64
2022/04/18 10:50:28;;;;;;;;;4.60;4.20;;;;;29.30;23.99;100086.94;5096532;28;8840;-64
2022/04/18 10:52:56;;;;;;;;;8.00;8.00;;;;;29.50;24.44;100081.94;5096186;28;8823;-64
2022/04/18 10:55:27;;;;;;;;;4.00;3.00;;;;;29.66;23.89;100079.28;5096888;28;8863;-64
2022/04/18 10:57:55;;;;;;;;;6.80;6.80;;;;;30.03;23.42;100077.88;5095771;28;8832;-64
2022/04/18 11:00:22;;;;;;;;;4.80;4.80;;;;;30.32;23.59;100078.78;5095505;28;8971;-64
2022/04/18 11:02:50;;;;;;;;;8.20;8.00;;;;;30.55;23.24;100073.16;5094793;28;8963;-65
2022/04/18 11:05:18;;;;;;;;;8.60;7.80;;;;;30.62;23.17;100074.69;5096553;28;8853;-65
2022/04/18 11:07:46;;;;;;;;;8.20;8.20;;;;;30.83;23.06;100068.44;5096148;28;8811;-62
2022/04/18 11:10:13;;;;;;;;;6.20;6.00;;;;;31.10;22.80;100061.19;5095376;28;8866;-62
2022/04/18 11:12:41;;;;;;;;;5.80;5.60;;;;;31.32;22.88;100068.44;5095822;28;8812;-62
2022/04/18 11:15:09;;;;;;;;;6.00;5.80;;;;;31.46;22.53;100057.88;5095639;28;8834;-62
2022/04/18 11:17:39;;;;;;;;;6.40;6.40;;;;;31.54;22.18;100057.44;5094971;28;8808;-62
2022/04/18 11:20:07;;;;;;;;;5.80;5.20;;;;;31.58;22.18;100053.13;5095931;28;8838;-62
2022/04/18 11:22:34;;;;;;;;;6.40;5.60;;;;;31.66;22.35;100058.19;5096042;28;9477;-62
2022/04/18 11:25:03;;;;;;;;;5.00;4.80;;;;;31.59;22.71;100054.78;5095126;28;8845;-63
2022/04/18 11:27:31;;;;;;;;;6.20;6.00;;;;;31.60;22.26;100050.94;5095266;28;8946;-64
2022/04/18 11:29:58;;;;;;;;;4.20;4.00;;;;;31.79;22.09;100033.84;5095265;28;8835;-63
2022/04/18 11:32:26;;;;;;;;;5.00;5.00;;;;;31.94;22.06;100038.72;5095513;28;8850;-62
2022/04/18 11:34:54;;;;;;;;;6.00;6.00;;;;;32.16;22.32;100034.03;5095496;28;8830;-62
2022/04/18 11:37:22;;;;;;;;;5.60;5.60;;;;;32.27;21.40;100036.66;5095518;28;8831;-62
2022/04/18 11:39:49;;;;;;;;;5.80;5.40;;;;;32.13;21.58;100029.00;5094618;28;8852;-62
2022/04/18 11:42:17;;;;;;;;;5.00;5.00;;;;;32.26;22.26;100025.88;5095323;28;9473;-62
2022/04/18 11:44:45;;;;;;;;;6.80;6.80;;;;;32.25;21.55;100024.22;5094717;28;8870;-62
2022/04/18 11:47:13;;;;;;;;;5.00;5.00;;;;;32.27;21.56;100030.28;5095372;28;9475;-63
2022/04/18 11:49:40;;;;;;;;;6.40;6.40;;;;;32.39;21.14;100022.72;5095233;28;8816;-63
2022/04/18 11:52:08;;;;;;;;;5.20;5.00;;;;;32.58;21.12;100022.06;5094462;28;8975;-63
2022/04/18 11:54:35;;;;;;;;;4.60;4.60;;;;;32.77;21.26;100017.00;5095064;28;8815;-62
2022/04/18 11:57:04;;;;;;;;;5.00;5.00;;;;;32.89;21.13;100018.47;5095418;28;8876;-62
2022/04/18 11:59:32;;;;;;;;;5.80;5.40;;;;;32.93;21.50;100016.03;5095703;28;8843;-66
2022/04/18 12:07:30;;;;;;;;;4.00;4.00;;;;;32.71;21.74;100018.84;5085104;28;9489;-62
2022/04/18 12:09:58;;;;;;;;;6.00;5.40;;;;;32.70;21.43;100013.59;5093997;28;8896;-62